Time;durP1;ratioP1;P1;durP2;ratioP2;P2;SDS_P1;SDS_P2;PMS_P1;PMS_P2;Temp;Humidity;BMP_temperature;BMP_pressure;BME280_temperature;BME280_humidity;BME280_pressure;Samples;Min_cycle;Max_cycle;Signal;HPM_P1;HPM_P2
2021/09/15 00:00:06;;;;;;;6.10;5.60;;;;;;;17.86;63.03;101087.34;688260;28;23281;-68
2021/09/15 00:00:33;;;;;;;6.25;5.65;;;;;;;17.86;63.02;101088.16;685093;28;138061;-68
2021/09/15 00:00:54;;;;;;;6.07;5.57;;;;;;;17.86;63.01;101090.06;687861;28;46302;-68
2021/09/15 00:01:15;;;;;;;6.60;6.00;;;;;;;17.86;62.98;101093.63;689312;28;21481;-68
2021/09/15 00:01:36;;;;;;;6.30;5.78;;;;;;;17.88;63.04;101093.41;691317;28;21533;-69
2021/09/15 00:01:58;;;;;;;5.95;5.45;;;;;;;17.86;62.98;101093.63;689612;28;20998;-69
2021/09/15 00:02:19;;;;;;;6.72;5.55;;;;;;;17.89;62.84;101082.28;688384;28;44180;-69
2021/09/15 00:02:40;;;;;;;6.03;5.43;;;;;;;17.86;63.12;101081.88;689811;28;23717;-68
2021/09/15 00:03:03;;;;;;;6.15;5.55;;;;;;;17.91;62.94;101087.53;689880;28;22346;-68
2021/09/15 00:03:25;;;;;;;6.97;5.90;;;;;;;17.92;62.84;101089.22;687878;28;67586;-69
2021/09/15 00:03:46;;;;;;;6.10;5.60;;;;;;;17.86;62.91;101070.94;687779;28;67571;-69
2021/09/15 00:04:07;;;;;;;6.18;5.57;;;;;;;17.92;62.72;101084.59;687653;28;44436;-68
2021/09/15 00:04:28;;;;;;;7.63;6.10;;;;;;;17.96;62.75;101085.84;691109;28;22184;-69
2021/09/15 00:04:50;;;;;;;6.90;6.22;;;;;;;17.99;62.74;101088.16;691207;28;23488;-68
2021/09/15 00:05:11;;;;;;;6.20;5.70;;;;;;;17.97;62.56;101079.31;690219;28;44423;-69
2021/09/15 00:05:32;;;;;;;6.35;5.63;;;;;;;17.99;62.49;101082.69;691661;28;22405;-68
2021/09/15 00:05:54;;;;;;;6.20;5.40;;;;;;;17.97;62.61;101084.78;691208;28;22427;-68
2021/09/15 00:06:16;;;;;;;6.05;5.55;;;;;;;18.00;62.59;101084.34;690326;28;22321;-68
2021/09/15 00:06:37;;;;;;;10.02;5.80;;;;;;;18.00;62.49;101083.50;687884;28;46715;-68
2021/09/15 00:06:58;;;;;;;8.18;5.82;;;;;;;17.99;62.56;101085.41;688806;28;22256;-69
2021/09/15 00:07:20;;;;;;;6.53;5.53;;;;;;;18.01;62.39;101082.47;690735;28;22406;-68
2021/09/15 00:07:41;;;;;;;6.25;5.75;;;;;;;17.98;62.65;101078.25;689689;28;45280;-68
2021/09/15 00:08:02;;;;;;;6.30;5.70;;;;;;;17.98;62.45;101078.25;690870;28;22195;-71
2021/09/15 00:08:25;;;;;;;6.25;5.65;;;;;;;17.98;62.58;101082.91;691399;28;21997;-69
2021/09/15 00:08:47;;;;;;;6.03;5.45;;;;;;;17.95;62.77;101080.59;689049;28;68452;-68
2021/09/15 00:09:11;;;;;;;6.13;5.63;;;;;;;17.95;62.77;101078.69;687039;28;44380;-69
2021/09/15 00:09:38;;;;;;;6.63;5.93;;;;;;;17.93;62.89;101080.81;681955;28;92097;-68
2021/09/15 00:10:01;;;;;;;6.30;5.70;;;;;;;17.93;62.95;101079.97;682962;28;137773;-68
2021/09/15 00:10:22;;;;;;;6.07;5.47;;;;;;;17.93;62.72;101078.09;685515;28;69335;-68
2021/09/15 00:10:45;;;;;;;5.95;5.38;;;;;;;17.87;62.78;101073.47;686660;28;21555;-68
2021/09/15 00:11:12;;;;;;;5.97;5.47;;;;;;;17.90;62.99;101083.97;687645;28;37656;-68
2021/09/15 00:11:34;;;;;;;5.80;5.32;;;;;;;17.90;62.98;101078.53;688111;28;115155;-68
2021/09/15 00:11:57;;;;;;;5.80;5.30;;;;;;;17.89;62.83;101078.72;687395;28;46879;-68
2021/09/15 00:12:18;;;;;;;6.35;5.75;;;;;;;17.88;62.81;101080.59;686512;28;70322;-68
2021/09/15 00:12:39;;;;;;;6.30;5.70;;;;;;;17.89;62.85;101078.72;688477;28;22402;-68
2021/09/15 00:13:03;;;;;;;6.72;5.97;;;;;;;17.87;62.92;101081.66;688586;28;21543;-68
2021/09/15 00:13:24;;;;;;;6.30;5.55;;;;;;;17.89;63.07;101082.28;686441;28;92759;-68
2021/09/15 00:13:46;;;;;;;6.50;5.90;;;;;;;17.87;62.83;101078.06;688402;28;22405;-68
2021/09/15 00:14:07;;;;;;;6.78;6.18;;;;;;;17.85;62.92;101075.53;688534;28;23488;-68
2021/09/15 00:14:29;;;;;;;6.25;5.75;;;;;;;17.85;62.90;101078.28;688762;28;23464;-68
2021/09/15 00:14:50;;;;;;;6.28;5.72;;;;;;;17.86;62.90;101079.97;687843;28;44110;-68
2021/09/15 00:15:11;;;;;;;6.53;5.93;;;;;;;17.85;62.86;101081.00;688557;28;22445;-68
2021/09/15 00:15:32;;;;;;;6.68;5.97;;;;;;;17.87;62.89;101078.91;688148;28;46285;-68
2021/09/15 00:15:53;;;;;;;6.70;6.03;;;;;;;17.87;63.04;101076.19;688133;28;23476;-68
2021/09/15 00:16:16;;;;;;;6.88;6.13;;;;;;;17.86;63.04;101070.94;688563;28;22420;-68
2021/09/15 00:16:37;;;;;;;6.70;6.10;;;;;;;17.89;62.92;101081.47;688007;28;44403;-68
2021/09/15 00:16:58;;;;;;;6.50;5.97;;;;;;;17.89;63.05;101079.56;690799;28;23392;-68
2021/09/15 00:17:19;;;;;;;6.45;5.85;;;;;;;17.89;63.01;101078.72;691165;28;23755;-68
2021/09/15 00:17:41;;;;;;;7.07;6.10;;;;;;;17.89;62.94;101070.53;689935;28;23447;-68
2021/09/15 00:18:02;;;;;;;6.53;6.00;;;;;;;17.91;62.94;101077.44;687512;28;45359;-68
2021/09/15 00:18:23;;;;;;;6.60;6.10;;;;;;;17.91;62.92;101073.88;687984;28;46399;-68
2021/09/15 00:18:46;;;;;;;6.28;5.78;;;;;;;17.93;62.83;101080.81;688511;28;22292;-68
2021/09/15 00:19:12;;;;;;;6.72;6.20;;;;;;;17.95;62.87;101077.88;686820;28;69463;-68
2021/09/15 00:19:43;;;;;;;7.25;5.82;;;;;;;17.95;62.60;101081.44;687048;28;60122;-68
2021/09/15 00:20:05;;;;;;;7.68;6.38;;;;;;;17.95;62.51;101077.88;688495;28;22258;-68
2021/09/15 00:20:26;;;;;;;7.00;6.40;;;;;;;17.96;62.60;101079.53;688375;28;44384;-68
2021/09/15 00:20:48;;;;;;;6.60;6.00;;;;;;;18.00;62.53;101078.03;688689;28;22381;-68
2021/09/15 00:21:09;;;;;;;6.50;6.00;;;;;;;17.98;62.42;101078.25;687615;28;46332;-68
2021/09/15 00:21:30;;;;;;;6.70;6.10;;;;;;;18.01;62.43;101085.19;688735;28;23469;-68
2021/09/15 00:21:51;;;;;;;6.87;6.13;;;;;;;18.02;62.41;101084.13;687816;28;45351;-68
2021/09/15 00:22:14;;;;;;;6.63;6.00;;;;;;;18.03;62.25;101074.88;690554;28;44508;-68
2021/09/15 00:22:35;;;;;;;6.72;6.13;;;;;;;18.05;62.38;101080.13;689278;28;69444;-69
2021/09/15 00:22:56;;;;;;;6.57;5.82;;;;;;;18.07;62.37;101086.19;690695;28;22394;-68
2021/09/15 00:23:17;;;;;;;6.53;5.93;;;;;;;18.05;62.24;101071.94;690725;28;22434;-68
2021/09/15 00:23:40;;;;;;;6.53;6.00;;;;;;;18.08;62.02;101074.22;690799;28;22353;-68
2021/09/15 00:24:01;;;;;;;5.90;5.40;;;;;;;18.08;62.26;101068.75;687587;28;69425;-69
2021/09/15 00:24:22;;;;;;;6.18;5.63;;;;;;;18.09;62.11;101073.19;688985;28;21533;-69
2021/09/15 00:24:43;;;;;;;6.50;5.80;;;;;;;18.05;62.17;101063.72;688600;28;22412;-68
2021/09/15 00:25:06;;;;;;;6.20;5.70;;;;;;;18.11;62.12;101076.50;688704;28;23493;-68
2021/09/15 00:25:27;;;;;;;6.25;5.65;;;;;;;18.12;62.23;101078.16;687848;28;44590;-68
2021/09/15 00:25:48;;;;;;;6.32;5.72;;;;;;;18.11;61.97;101073.78;688389;28;23283;-68
2021/09/15 00:26:09;;;;;;;7.80;6.00;;;;;;;18.09;62.06;101078.63;687586;28;46308;-69
2021/09/15 00:26:31;;;;;;;6.20;5.70;;;;;;;18.12;62.01;101069.97;688879;28;22425;-68
2021/09/15 00:26:52;;;;;;;6.63;6.03;;;;;;;18.14;62.16;101085.09;686338;28;44356;-68
2021/09/15 00:27:13;;;;;;;6.82;6.15;;;;;;;18.13;61.78;101068.94;687817;28;22180;-68
2021/09/15 00:27:34;;;;;;;7.55;6.13;;;;;;;18.15;62.02;101064.94;688727;28;22376;-68
2021/09/15 00:27:56;;;;;;;6.80;6.13;;;;;;;18.14;62.00;101065.97;688009;28;21475;-68
2021/09/15 00:28:17;;;;;;;7.22;6.13;;;;;;;18.14;61.84;101065.97;687861;28;46337;-68
2021/09/15 00:28:41;;;;;;;7.00;6.30;;;;;;;18.15;61.88;101070.38;689208;28;23475;-68
2021/09/15 00:29:02;;;;;;;6.95;6.25;;;;;;;18.16;61.96;101073.97;687246;28;92173;-68
2021/09/15 00:29:24;;;;;;;6.72;6.00;;;;;;;18.16;61.83;101066.59;688888;28;22378;-68
2021/09/15 00:29:46;;;;;;;7.45;5.88;;;;;;;18.16;61.89;101071.22;687161;28;46412;-68
2021/09/15 00:30:08;;;;;;;7.78;6.47;;;;;;;18.17;61.86;101072.91;687532;28;22421;-68
2021/09/15 00:30:29;;;;;;;6.93;6.22;;;;;;;18.17;61.91;101071.00;685278;28;70463;-70
2021/09/15 00:30:51;;;;;;;7.03;6.43;;;;;;;18.18;61.89;101067.22;686694;28;21543;-68
2021/09/15 00:31:12;;;;;;;6.78;6.18;;;;;;;18.19;61.86;101068.06;685830;28;46416;-68
2021/09/15 00:31:34;;;;;;;6.57;5.95;;;;;;;18.18;61.85;101064.50;684633;28;23763;-69
2021/09/15 00:31:55;;;;;;;8.35;6.45;;;;;;;18.18;62.00;101067.22;686990;28;22370;-68
2021/09/15 00:32:17;;;;;;;8.65;6.20;;;;;;;18.17;61.86;101064.72;683416;28;46359;-68
2021/09/15 00:32:38;;;;;;;7.07;6.40;;;;;;;18.16;62.01;101061.13;684683;28;44408;-68
2021/09/15 00:32:59;;;;;;;6.82;6.13;;;;;;;18.13;62.02;101052.53;685166;28;22175;-68
2021/09/15 00:33:20;;;;;;;6.82;6.25;;;;;;;18.22;61.94;101069.53;686333;28;23487;-68
2021/09/15 00:33:42;;;;;;;6.85;6.22;;;;;;;18.22;61.75;101067.59;688300;28;22439;-68
2021/09/15 00:34:04;;;;;;;6.90;6.30;;;;;;;18.22;61.79;101070.34;688288;28;24167;-68
2021/09/15 00:34:29;;;;;;;6.38;5.88;;;;;;;18.21;61.83;101063.19;688584;28;21706;-68
2021/09/15 00:34:50;;;;;;;6.97;6.38;;;;;;;18.22;61.66;101064.06;684212;28;136481;-68
2021/09/15 00:35:14;;;;;;;6.70;6.20;;;;;;;18.23;61.77;101065.69;688158;28;22400;-68
2021/09/15 00:35:35;;;;;;;6.90;6.20;;;;;;;18.22;61.85;101066.78;686825;28;68368;-69
2021/09/15 00:35:56;;;;;;;7.20;6.38;;;;;;;18.21;61.64;101065.94;688101;28;23466;-68
2021/09/15 00:36:17;;;;;;;7.28;6.57;;;;;;;18.23;61.88;101065.69;687281;28;21553;-68
2021/09/15 00:36:43;;;;;;;6.90;6.30;;;;;;;18.23;61.81;101063.81;686610;28;22213;-68
2021/09/15 00:37:06;;;;;;;6.65;5.95;;;;;;;18.24;61.81;101061.91;680789;28;161081;-69
2021/09/15 00:37:27;;;;;;;7.10;6.20;;;;;;;18.24;61.73;101060.03;684030;28;68323;-68
2021/09/15 00:37:49;;;;;;;6.93;6.22;;;;;;;18.24;61.72;101057.28;684308;28;45366;-69
2021/09/15 00:38:11;;;;;;;7.97;6.40;;;;;;;18.19;61.71;101057.13;685303;28;24519;-68
2021/09/15 00:38:32;;;;;;;9.48;6.45;;;;;;;18.19;61.74;101060.69;684613;28;46336;-69
2021/09/15 00:38:54;;;;;;;7.05;6.35;;;;;;;18.21;61.83;101063.19;686397;28;22800;-69
2021/09/15 00:39:15;;;;;;;6.95;6.35;;;;;;;18.19;61.78;101057.13;688773;28;46355;-69
2021/09/15 00:39:37;;;;;;;7.15;6.45;;;;;;;18.17;62.02;101061.97;689524;28;22422;-69
2021/09/15 00:39:58;;;;;;;6.95;6.25;;;;;;;18.18;61.90;101058.16;688988;28;46287;-69
2021/09/15 00:40:21;;;;;;;6.70;6.20;;;;;;;18.15;61.89;101064.06;688802;28;46337;-68
2021/09/15 00:40:42;;;;;;;6.32;5.93;;;;;;;18.14;61.88;101065.16;688985;28;46303;-68
2021/09/15 00:41:04;;;;;;;6.65;5.90;;;;;;;18.14;62.05;101067.88;686653;28;21537;-69
2021/09/15 00:41:26;;;;;;;6.68;6.18;;;;;;;18.14;62.05;101065.16;687435;28;1532;-68
2021/09/15 00:41:48;;;;;;;6.85;6.15;;;;;;;18.13;62.03;101063.47;685755;28;44489;-68
2021/09/15 00:42:10;;;;;;;8.45;6.35;;;;;;;18.13;62.14;101063.47;686649;28;46330;-69
2021/09/15 00:42:31;;;;;;;7.28;6.57;;;;;;;18.11;62.13;101057.38;687217;28;44370;-69
2021/09/15 00:42:56;;;;;;;7.18;6.47;;;;;;;18.10;62.21;101061.16;688578;28;13585;-69
2021/09/15 00:43:19;;;;;;;6.63;6.03;;;;;;;18.10;62.26;101066.63;686896;28;69439;-69
2021/09/15 00:43:55;;;;;;;6.50;5.90;;;;;;;18.09;62.15;101067.72;685944;28;93186;-69
2021/09/15 00:44:17;;;;;;;7.00;6.32;;;;;;;18.07;62.22;101057.00;683694;28;135875;-69
2021/09/15 00:44:39;;;;;;;7.70;6.22;;;;;;;18.07;62.33;101062.47;687878;28;44334;-69
2021/09/15 00:45:00;;;;;;;7.05;6.35;;;;;;;18.07;62.44;101057.00;687313;28;45291;-68
2021/09/15 00:45:22;;;;;;;7.63;6.50;;;;;;;18.09;62.34;101060.34;688529;28;23978;-69
2021/09/15 00:45:44;;;;;;;7.20;6.60;;;;;;;18.09;62.33;101062.25;688512;28;21528;-69
2021/09/15 00:46:05;;;;;;;6.95;6.35;;;;;;;18.10;62.25;101063.91;688216;28;42741;-69
2021/09/15 00:46:26;;;;;;;6.80;6.18;;;;;;;18.09;62.10;101056.78;688338;28;23766;-69
2021/09/15 00:46:48;;;;;;;7.13;6.40;;;;;;;18.09;62.14;101064.97;685366;28;45351;-68
2021/09/15 00:47:10;;;;;;;6.93;6.32;;;;;;;18.08;62.30;101060.56;686653;28;22250;-69
2021/09/15 00:47:31;;;;;;;6.80;6.20;;;;;;;18.07;62.20;101056.13;685803;28;44210;-69
2021/09/15 00:47:53;;;;;;;6.70;6.10;;;;;;;18.11;62.26;101060.13;684187;28;45251;-69
2021/09/15 00:48:16;;;;;;;6.40;5.80;;;;;;;18.07;62.27;101056.13;684116;28;46356;-69
2021/09/15 00:48:37;;;;;;;6.88;6.28;;;;;;;18.08;62.29;101058.66;685276;28;44424;-69
2021/09/15 00:48:59;;;;;;;7.20;6.60;;;;;;;18.09;62.28;101056.78;688148;28;22457;-69
2021/09/15 00:49:20;;;;;;;7.18;6.55;;;;;;;18.11;62.36;101055.47;687382;28;44167;-69
2021/09/15 00:49:43;;;;;;;7.05;6.35;;;;;;;18.09;61.96;101051.31;686733;28;68186;-69
2021/09/15 00:50:06;;;;;;;7.63;6.45;;;;;;;18.10;62.10;101052.97;688029;28;22403;-69
2021/09/15 00:50:29;;;;;;;7.32;6.57;;;;;;;18.14;62.18;101060.50;687084;28;67488;-69
2021/09/15 00:50:54;;;;;;;7.85;7.00;;;;;;;18.12;62.21;101053.56;686861;28;69542;-69
2021/09/15 00:51:18;;;;;;;6.60;6.10;;;;;;;18.12;61.82;101050.84;684924;28;115092;-69
2021/09/15 00:51:43;;;;;;;6.50;6.00;;;;;;;18.16;62.16;101057.56;684780;28;161225;-68
2021/09/15 00:52:07;;;;;;;7.05;6.38;;;;;;;18.14;62.12;101057.78;687730;28;69402;-68
2021/09/15 00:52:28;;;;;;;7.20;6.20;;;;;;;18.13;62.18;101058.81;686834;28;92199;-67
2021/09/15 00:52:51;;;;;;;8.52;6.65;;;;;;;18.16;62.16;101057.56;686708;28;21214;-68
2021/09/15 00:53:13;;;;;;;9.20;6.80;;;;;;;18.15;62.01;101058.59;685170;28;69687;-68
2021/09/15 00:53:35;;;;;;;7.10;6.40;;;;;;;18.16;61.99;101065.75;686136;28;66201;-68
2021/09/15 00:53:59;;;;;;;6.50;5.90;;;;;;;18.15;61.88;101058.59;687047;28;45286;-68
2021/09/15 00:54:21;;;;;;;6.43;5.93;;;;;;;18.16;62.03;101063.03;687453;28;44430;-68
2021/09/15 00:54:43;;;;;;;6.90;6.30;;;;;;;18.14;62.29;101060.50;688216;28;92197;-68
2021/09/15 00:55:06;;;;;;;7.00;6.35;;;;;;;18.17;62.06;101067.44;690900;28;22404;-68
2021/09/15 00:55:28;;;;;;;6.60;6.10;;;;;;;18.17;62.00;101065.53;689181;28;69441;-68
2021/09/15 00:55:50;;;;;;;6.50;6.00;;;;;;;18.18;62.05;101064.50;689699;28;21656;-68
2021/09/15 00:56:11;;;;;;;6.93;6.22;;;;;;;18.18;61.91;101066.38;686357;28;69307;-68
2021/09/15 00:56:33;;;;;;;6.45;5.95;;;;;;;18.15;62.09;101064.06;688351;28;22406;-68
2021/09/15 00:56:54;;;;;;;7.13;6.43;;;;;;;18.16;62.01;101069.31;687454;28;45343;-68
2021/09/15 00:57:16;;;;;;;7.15;6.50;;;;;;;18.13;62.05;101063.47;688246;28;20421;-68
2021/09/15 00:57:39;;;;;;;7.05;6.35;;;;;;;18.12;61.91;101068.09;685396;28;45298;-68
2021/09/15 00:58:01;;;;;;;7.18;6.57;;;;;;;18.10;62.16;101069.38;684730;28;69463;-68
2021/09/15 00:58:22;;;;;;;7.22;6.63;;;;;;;18.10;62.24;101066.63;686719;28;44371;-68
2021/09/15 00:58:45;;;;;;;9.30;8.45;;;;;;;18.10;62.08;101061.16;688041;28;68342;-68
2021/09/15 00:59:08;;;;;;;6.45;5.95;;;;;;;18.08;62.13;101061.38;689804;28;21548;-68
2021/09/15 00:59:29;;;;;;;6.93;6.32;;;;;;;18.07;62.33;101067.06;688729;28;45299;-68
2021/09/15 00:59:50;;;;;;;6.55;6.03;;;;;;;18.05;62.23;101061.00;688650;28;1035;-68
2021/09/15 01:00:13;;;;;;;7.18;6.47;;;;;;;18.05;62.17;101069.19;688597;28;46403;-68
2021/09/15 01:00:37;;;;;;;6.90;6.32;;;;;;;18.02;62.32;101064.97;684452;28;92295;-68
2021/09/15 01:00:58;;;;;;;7.28;6.50;;;;;;;18.03;62.56;101068.56;685004;28;69490;-68
2021/09/15 01:01:19;;;;;;;7.30;6.60;;;;;;;18.02;62.43;101067.72;685998;28;45039;-68
2021/09/15 01:01:42;;;;;;;7.35;6.65;;;;;;;18.02;62.37;101062.25;685689;28;69313;-68
2021/09/15 01:02:05;;;;;;;7.43;6.68;;;;;;;18.02;62.45;101064.97;688439;28;46395;-68
2021/09/15 01:02:27;;;;;;;7.82;6.60;;;;;;;18.03;62.70;101068.56;687121;28;67517;-68
2021/09/15 01:02:48;;;;;;;7.07;6.38;;;;;;;18.04;62.44;101064.78;689215;28;21295;-68
2021/09/15 01:03:09;;;;;;;7.40;6.43;;;;;;;18.05;62.50;101071.94;688272;28;19851;-69
2021/09/15 01:03:31;;;;;;;8.07;6.40;;;;;;;18.06;62.39;101065.41;687204;28;44370;-68
2021/09/15 01:03:54;;;;;;;7.28;6.50;;;;;;;18.06;62.39;101068.97;685097;28;22407;-68
2021/09/15 01:04:18;;;;;;;7.03;6.30;;;;;;;18.05;62.11;101058.25;679808;28;136437;-68
2021/09/15 01:04:45;;;;;;;7.40;6.30;;;;;;;18.11;62.38;101068.31;679935;28;139435;-68
2021/09/15 01:05:12;;;;;;;7.22;6.53;;;;;;;18.12;62.13;101067.25;680032;28;161296;-68
2021/09/15 01:05:33;;;;;;;7.10;6.40;;;;;;;18.13;62.12;101064.28;684815;28;69256;-68
2021/09/15 01:05:57;;;;;;;7.68;6.50;;;;;;;18.14;62.10;101065.97;686375;28;68414;-68
2021/09/15 01:06:18;;;;;;;7.18;6.47;;;;;;;18.16;62.03;101063.84;686351;28;22560;-68
2021/09/15 01:06:44;;;;;;;6.82;6.32;;;;;;;18.17;61.83;101067.44;681481;28;90750;-68
2021/09/15 01:07:05;;;;;;;7.00;6.40;;;;;;;18.15;62.08;101056.72;682786;28;90749;-68
2021/09/15 01:07:29;;;;;;;6.97;6.28;;;;;;;18.15;61.95;101059.47;683630;28;67479;-68
2021/09/15 01:07:52;;;;;;;7.03;6.32;;;;;;;18.15;62.21;101064.06;682893;28;69463;-68
2021/09/15 01:08:17;;;;;;;7.78;6.55;;;;;;;18.12;62.20;101062.63;682033;28;90550;-68
2021/09/15 01:08:38;;;;;;;7.70;6.30;;;;;;;18.10;62.17;101059.28;680066;29;45253;-68
2021/09/15 01:09:02;;;;;;;8.05;6.65;;;;;;;18.10;62.18;101055.69;680493;29;45352;-68
2021/09/15 01:09:24;;;;;;;7.13;6.40;;;;;;;18.11;62.40;101063.69;678843;29;90686;-68
2021/09/15 01:09:47;;;;;;;7.50;6.72;;;;;;;18.12;62.31;101061.78;681680;28;67509;-68
2021/09/15 01:10:14;;;;;;;7.13;6.53;;;;;;;18.12;62.25;101056.31;682515;28;136328;-68
2021/09/15 01:10:47;;;;;;;6.80;6.30;;;;;;;18.13;62.15;101056.09;683802;28;137384;-68
2021/09/15 01:11:22;;;;;;;7.13;6.53;;;;;;;18.14;62.14;101060.50;684897;28;138302;-68
2021/09/15 01:12:03;;;;;;;7.40;6.68;;;;;;;18.16;62.26;101052.91;684098;28;137684;-68
2021/09/15 01:12:31;;;;;;;7.15;6.43;;;;;;;18.18;62.08;101060.91;682676;28;137955;-68
2021/09/15 01:13:28;;;;;;;6.70;6.10;;;;;;;18.19;62.06;101059.84;681666;28;137354;-68
2021/09/15 01:14:09;;;;;;;6.43;5.93;;;;;;;18.15;61.91;101056.72;684502;28;135958;-68
2021/09/15 01:14:43;;;;;;;7.35;6.57;;;;;;;18.14;61.99;101057.78;685948;28;135964;-69
2021/09/15 01:15:28;;;;;;;7.18;6.47;;;;;;;18.09;62.18;101056.78;689063;28;74156;-68
2021/09/15 01:16:08;;;;;;;6.90;6.30;;;;;;;18.06;62.26;101058.03;686982;28;137505;-68
2021/09/15 01:16:50;;;;;;;8.30;6.60;;;;;;;18.04;62.32;101064.78;683480;28;161519;-68
2021/09/15 01:17:41;;;;;;;7.93;6.47;;;;;;;17.99;62.58;101057.22;682820;28;160297;-68
2021/09/15 01:18:21;;;;;;;6.90;6.40;;;;;;;17.96;62.68;101064.00;684291;28;139130;-68
2021/09/15 01:19:19;;;;;;;7.30;6.60;;;;;;;17.90;62.84;101059.38;680639;28;137667;-69
2021/09/15 01:20:13;;;;;;;8.27;6.63;;;;;;;17.90;62.94;101051.19;672248;29;136231;-68
2021/09/15 01:21:15;;;;;;;7.15;6.55;;;;;;;17.91;62.92;101047.38;666685;29;137618;-68
2021/09/15 01:22:03;;;;;;;6.80;6.10;;;;;;;17.91;62.97;101050.13;675316;28;137125;-68
2021/09/15 01:22:50;;;;;;;7.38;6.72;;;;;;;17.93;62.93;101050.75;687052;28;129266;-68
2021/09/15 01:23:25;;;;;;;8.57;6.72;;;;;;;17.94;62.96;101051.59;686692;28;137829;-68
2021/09/15 01:24:20;;;;;;;7.60;6.90;;;;;;;17.97;62.86;101046.50;681623;28;135989;-68
2021/09/15 01:25:00;;;;;;;7.30;6.63;;;;;;;17.99;62.91;101054.50;682767;28;137541;-68
2021/09/15 01:25:40;;;;;;;7.53;6.82;;;;;;;17.98;62.60;101044.63;683827;28;135793;-68
2021/09/15 01:26:20;;;;;;;7.55;6.85;;;;;;;17.97;62.77;101041.03;683874;28;160624;-68
2021/09/15 01:27:09;;;;;;;8.03;6.93;;;;;;;17.97;62.86;101041.03;681680;28;135825;-68
2021/09/15 01:27:43;;;;;;;7.38;6.65;;;;;;;17.96;62.83;101041.25;683448;28;158952;-68
2021/09/15 01:28:25;;;;;;;7.00;6.35;;;;;;;17.94;62.73;101049.69;683487;28;160436;-68
2021/09/15 01:28:58;;;;;;;7.28;6.38;;;;;;;17.90;62.75;101043.00;684158;28;138170;-68
2021/09/15 01:29:21;;;;;;;7.28;6.57;;;;;;;17.94;63.04;101049.69;686280;28;21535;-68
2021/09/15 01:29:43;;;;;;;6.80;6.25;;;;;;;17.92;63.02;101053.72;685065;28;69477;-68
2021/09/15 01:30:13;;;;;;;7.40;6.80;;;;;;;17.91;63.11;101046.56;681339;28;137452;-68
2021/09/15 01:30:41;;;;;;;9.05;7.00;;;;;;;17.86;62.97;101041.72;681028;28;161607;-68
2021/09/15 01:31:03;;;;;;;7.45;6.63;;;;;;;17.92;63.10;101056.44;683800;28;68992;-68
2021/09/15 01:31:26;;;;;;;8.00;7.20;;;;;;;17.88;63.09;101046.97;685668;28;23481;-68
2021/09/15 01:31:59;;;;;;;8.73;7.03;;;;;;;17.88;63.04;101047.81;683724;28;67479;-68
2021/09/15 01:32:22;;;;;;;8.02;7.30;;;;;;;17.89;63.24;101052.25;682100;28;136486;-68
2021/09/15 01:32:46;;;;;;;7.90;6.60;;;;;;;17.90;63.10;101045.72;686386;28;1163;-68
2021/09/15 01:33:10;;;;;;;8.13;6.43;;;;;;;17.89;63.23;101054.97;679132;28;46317;-68
2021/09/15 01:33:31;;;;;;;7.55;6.80;;;;;;;17.90;63.12;101056.66;678515;28;92150;-68
2021/09/15 01:33:54;;;;;;;7.90;7.10;;;;;;;17.88;63.24;101056.00;684519;28;45438;-68
2021/09/15 01:34:15;;;;;;;7.55;6.85;;;;;;;17.86;63.00;101049.91;684445;28;46293;-68
2021/09/15 01:34:38;;;;;;;7.70;7.00;;;;;;;17.86;63.28;101049.91;684053;28;22412;-68
2021/09/15 01:35:02;;;;;;;8.68;6.88;;;;;;;17.87;63.09;101051.59;681235;28;115128;-68
2021/09/15 01:35:28;;;;;;;7.32;6.60;;;;;;;17.86;63.21;101052.63;679607;28;161065;-68
2021/09/15 01:35:51;;;;;;;7.38;6.70;;;;;;;17.84;63.10;101050.13;683420;28;44483;-68
2021/09/15 01:36:14;;;;;;;7.88;7.18;;;;;;;17.84;63.27;101046.56;684239;28;69115;-69
2021/09/15 01:36:38;;;;;;;7.60;6.90;;;;;;;17.87;63.28;101054.34;682432;28;115080;-68
2021/09/15 01:36:59;;;;;;;7.53;6.80;;;;;;;17.86;63.11;101049.09;684936;28;22054;-68
2021/09/15 01:37:24;;;;;;;7.97;7.18;;;;;;;17.88;63.10;101047.81;682739;28;115158;-68
2021/09/15 01:37:57;;;;;;;7.82;7.10;;;;;;;17.86;63.25;101041.72;681570;28;161049;-68
2021/09/15 01:38:19;;;;;;;7.80;6.95;;;;;;;17.89;63.16;101054.16;686037;28;42368;-68
2021/09/15 01:38:41;;;;;;;7.57;6.80;;;;;;;17.90;63.11;101045.72;682240;28;69283;-68
2021/09/15 01:39:02;;;;;;;7.53;6.82;;;;;;;17.92;63.09;101049.06;683900;28;23615;-68
2021/09/15 01:39:28;;;;;;;7.65;7.00;;;;;;;17.89;62.97;101045.94;683982;28;22394;-68
2021/09/15 01:39:49;;;;;;;8.18;7.18;;;;;;;17.93;62.95;101045.28;681836;28;115133;-68
2021/09/15 01:40:11;;;;;;;7.90;7.20;;;;;;;17.95;63.12;101042.34;686951;28;21517;-68
2021/09/15 01:40:34;;;;;;;7.60;7.00;;;;;;;17.94;62.96;101049.69;684307;28;70123;-68
2021/09/15 01:41:00;;;;;;;7.40;6.75;;;;;;;17.95;63.07;101040.44;684554;28;92320;-68
2021/09/15 01:41:22;;;;;;;7.75;6.93;;;;;;;17.94;62.83;101044.22;681689;28;137392;-68
2021/09/15 01:41:43;;;;;;;7.63;6.93;;;;;;;17.97;62.89;101046.50;685370;28;22435;-68
2021/09/15 01:42:07;;;;;;;7.38;6.78;;;;;;;17.96;62.82;101036.66;686186;28;46301;-68
2021/09/15 01:42:28;;;;;;;7.40;6.80;;;;;;;17.98;62.77;101037.28;686812;28;69278;-68
2021/09/15 01:42:51;;;;;;;8.25;7.25;;;;;;;18.01;62.83;101041.47;687671;28;69372;-68
2021/09/15 01:43:15;;;;;;;8.55;7.20;;;;;;;18.00;62.76;101042.50;687095;28;21222;-68
2021/09/15 01:43:38;;;;;;;7.95;6.88;;;;;;;17.96;62.87;101038.53;682995;28;138771;-68
2021/09/15 01:44:20;;;;;;;8.07;7.28;;;;;;;17.96;62.82;101035.81;685820;28;23304;-68
2021/09/15 01:44:43;;;;;;;7.25;6.57;;;;;;;17.93;63.04;101037.09;683153;28;160204;-68
2021/09/15 01:45:09;;;;;;;8.20;7.35;;;;;;;17.92;63.04;101037.31;685435;28;92302;-68
2021/09/15 01:45:31;;;;;;;8.10;7.30;;;;;;;17.89;63.03;101033.13;683811;28;137630;-68
2021/09/15 01:45:53;;;;;;;7.97;7.18;;;;;;;17.86;63.23;101032.69;685959;28;46351;-68
2021/09/15 01:46:17;;;;;;;7.78;6.97;;;;;;;17.88;63.21;101030.56;682794;28;69439;-68
2021/09/15 01:46:41;;;;;;;7.80;7.10;;;;;;;17.88;63.42;101031.44;683192;28;45344;-68
2021/09/15 01:47:04;;;;;;;7.60;6.73;;;;;;;17.88;63.37;101030.56;678310;28;115175;-68
2021/09/15 01:47:25;;;;;;;7.55;6.88;;;;;;;17.87;63.32;101029.75;678762;28;69485;-67
2021/09/15 01:47:46;;;;;;;7.65;6.95;;;;;;;17.90;63.25;101033.94;680684;28;22516;-68
2021/09/15 01:48:09;;;;;;;7.63;6.85;;;;;;;17.90;63.19;101033.94;681929;28;23454;-68
2021/09/15 01:48:30;;;;;;;7.68;6.95;;;;;;;17.92;63.22;101023.66;682674;28;67260;-68
2021/09/15 01:48:54;;;;;;;7.63;6.95;;;;;;;17.95;62.89;101031.41;680960;28;92310;-68
2021/09/15 01:49:16;;;;;;;7.95;7.15;;;;;;;17.94;62.96;101033.28;683280;28;6002;-68
2021/09/15 01:49:39;;;;;;;8.27;7.00;;;;;;;17.94;63.01;101025.09;682359;28;23359;-68
2021/09/15 01:50:00;;;;;;;8.50;6.72;;;;;;;17.95;63.02;101031.41;681086;28;69455;-68
2021/09/15 01:50:26;;;;;;;8.35;6.97;;;;;;;17.96;62.95;101030.34;681295;28;68192;-68
2021/09/15 01:50:47;;;;;;;7.78;7.07;;;;;;;17.95;62.88;101025.94;679396;28;114933;-68
2021/09/15 01:51:09;;;;;;;8.05;7.32;;;;;;;17.97;62.88;101030.13;682029;28;24219;-68
2021/09/15 01:51:31;;;;;;;7.97;7.27;;;;;;;17.96;62.96;101024.88;679808;28;69089;-68
2021/09/15 01:51:53;;;;;;;7.88;7.15;;;;;;;17.95;62.82;101018.56;677406;28;69623;-68
2021/09/15 01:52:16;;;;;;;8.13;7.32;;;;;;;18.00;62.83;101028.84;677354;29;22344;-68
2021/09/15 01:52:38;;;;;;;7.40;6.70;;;;;;;17.99;62.69;101024.44;677735;28;67425;-68
2021/09/15 01:53:08;;;;;;;8.13;7.30;;;;;;;18.04;62.72;101023.78;679738;28;137480;-68
2021/09/15 01:53:30;;;;;;;8.48;7.22;;;;;;;18.03;62.61;101028.41;682824;28;46688;-68
2021/09/15 01:53:53;;;;;;;7.97;7.28;;;;;;;18.06;62.47;101024.41;681193;28;44429;-68
2021/09/15 01:54:17;;;;;;;8.27;7.57;;;;;;;18.06;62.43;101024.41;680570;28;69132;-68
2021/09/15 01:54:38;;;;;;;7.80;7.10;;;;;;;18.08;62.33;101025.03;679872;28;69141;-68
2021/09/15 01:54:59;;;;;;;8.88;7.03;;;;;;;18.06;62.41;101027.16;680489;28;46285;-68